sensor_id;sensor_type;location;lat;lon;timestamp;temperature;humidity
32394;DHT22;18853;45.426;9.206;2023-03-19T00:01:26;18.00;42.90
32394;DHT22;18853;45.426;9.206;2023-03-19T00:03:52;18.00;42.90
32394;DHT22;18853;45.426;9.206;2023-03-19T00:06:18;18.10;43.00
32394;DHT22;18853;45.426;9.206;2023-03-19T00:08:44;18.00;42.90
32394;DHT22;18853;45.426;9.206;2023-03-19T00:11:11;18.00;42.90
32394;DHT22;18853;45.426;9.206;2023-03-19T00:13:38;18.00;43.10
32394;DHT22;18853;45.426;9.206;2023-03-19T00:16:05;17.90;43.40
32394;DHT22;18853;45.426;9.206;2023-03-19T00:18:31;17.90;43.60
32394;DHT22;18853;45.426;9.206;2023-03-19T00:20:57;17.80;43.80
32394;DHT22;18853;45.426;9.206;2023-03-19T00:23:23;17.80;44.00
32394;DHT22;18853;45.426;9.206;2023-03-19T00:25:48;17.80;44.00
32394;DHT22;18853;45.426;9.206;2023-03-19T00:28:14;17.70;43.90
32394;DHT22;18853;45.426;9.206;2023-03-19T00:30:40;17.70;44.00
32394;DHT22;18853;45.426;9.206;2023-03-19T00:33:06;17.60;43.90
32394;DHT22;18853;45.426;9.206;2023-03-19T00:35:32;17.60;44.00
32394;DHT22;18853;45.426;9.206;2023-03-19T00:37:58;17.60;44.20
32394;DHT22;18853;45.426;9.206;2023-03-19T00:40:24;17.60;44.20
32394;DHT22;18853;45.426;9.206;2023-03-19T00:42:49;17.60;44.20
32394;DHT22;18853;45.426;9.206;2023-03-19T00:45:15;17.50;44.20
32394;DHT22;18853;45.426;9.206;2023-03-19T00:47:41;17.50;44.30
32394;DHT22;18853;45.426;9.206;2023-03-19T00:50:07;17.50;44.20
32394;DHT22;18853;45.426;9.206;2023-03-19T00:52:33;17.50;44.20
32394;DHT22;18853;45.426;9.206;2023-03-19T00:54:59;17.50;44.20
32394;DHT22;18853;45.426;9.206;2023-03-19T00:57:25;17.50;44.20
32394;DHT22;18853;45.426;9.206;2023-03-19T00:59:51;17.50;44.10
32394;DHT22;18853;45.426;9.206;2023-03-19T01:02:16;17.50;44.20
32394;DHT22;18853;45.426;9.206;2023-03-19T01:04:42;17.50;44.00
32394;DHT22;18853;45.426;9.206;2023-03-19T01:07:08;17.50;43.60
32394;DHT22;18853;45.426;9.206;2023-03-19T01:09:34;17.40;43.20
32394;DHT22;18853;45.426;9.206;2023-03-19T01:12:00;17.40;43.00
32394;DHT22;18853;45.426;9.206;2023-03-19T01:14:29;17.40;42.80
32394;DHT22;18853;45.426;9.206;2023-03-19T01:16:55;17.40;42.40
32394;DHT22;18853;45.426;9.206;2023-03-19T01:19:21;17.40;42.20
32394;DHT22;18853;45.426;9.206;2023-03-19T01:21:48;17.40;42.20
32394;DHT22;18853;45.426;9.206;2023-03-19T01:24:14;17.40;42.20
32394;DHT22;18853;45.426;9.206;2023-03-19T01:26:40;17.30;42.10
32394;DHT22;18853;45.426;9.206;2023-03-19T01:29:06;17.30;42.10
32394;DHT22;18853;45.426;9.206;2023-03-19T01:31:32;17.30;42.10
32394;DHT22;18853;45.426;9.206;2023-03-19T01:33:58;17.20;42.20
32394;DHT22;18853;45.426;9.206;2023-03-19T01:36:25;17.20;42.00
32394;DHT22;18853;45.426;9.206;2023-03-19T01:38:50;17.20;41.80
32394;DHT22;18853;45.426;9.206;2023-03-19T01:41:16;17.10;41.70
32394;DHT22;18853;45.426;9.206;2023-03-19T01:43:42;17.10;41.80
32394;DHT22;18853;45.426;9.206;2023-03-19T01:46:26;17.10;41.90
32394;DHT22;18853;45.426;9.206;2023-03-19T01:49:05;17.10;41.90
32394;DHT22;18853;45.426;9.206;2023-03-19T01:51:38;17.00;42.00
32394;DHT22;18853;45.426;9.206;2023-03-19T01:54:11;17.00;41.70
32394;DHT22;18853;45.426;9.206;2023-03-19T01:56:39;17.00;41.40
32394;DHT22;18853;45.426;9.206;2023-03-19T01:59:10;16.90;41.30
32394;DHT22;18853;45.426;9.206;2023-03-19T02:01:50;16.90;41.20
32394;DHT22;18853;45.426;9.206;2023-03-19T02:04:18;16.90;41.10
32394;DHT22;18853;45.426;9.206;2023-03-19T02:06:44;16.90;41.00
32394;DHT22;18853;45.426;9.206;2023-03-19T02:09:10;16.90;40.70
32394;DHT22;18853;45.426;9.206;2023-03-19T02:11:36;16.90;40.70
32394;DHT22;18853;45.426;9.206;2023-03-19T02:14:02;16.90;40.60
32394;DHT22;18853;45.426;9.206;2023-03-19T02:16:28;16.90;40.60
32394;DHT22;18853;45.426;9.206;2023-03-19T02:18:55;16.80;40.50
32394;DHT22;18853;45.426;9.206;2023-03-19T02:21:21;16.80;40.50
32394;DHT22;18853;45.426;9.206;2023-03-19T02:24:05;16.80;40.60
32394;DHT22;18853;45.426;9.206;2023-03-19T02:26:33;16.80;40.50
32394;DHT22;18853;45.426;9.206;2023-03-19T02:29:00;16.70;40.80
32394;DHT22;18853;45.426;9.206;2023-03-19T02:31:26;16.70;40.90
32394;DHT22;18853;45.426;9.206;2023-03-19T02:40:06;16.60;41.10
32394;DHT22;18853;45.426;9.206;2023-03-19T02:42:33;16.60;41.20
32394;DHT22;18853;45.426;9.206;2023-03-19T02:44:59;16.50;41.30
32394;DHT22;18853;45.426;9.206;2023-03-19T02:47:25;16.50;41.30
32394;DHT22;18853;45.426;9.206;2023-03-19T02:49:51;16.50;41.30
32394;DHT22;18853;45.426;9.206;2023-03-19T02:52:17;16.50;41.40
32394;DHT22;18853;45.426;9.206;2023-03-19T02:54:43;16.50;41.50
32394;DHT22;18853;45.426;9.206;2023-03-19T02:57:09;16.40;41.50
32394;DHT22;18853;45.426;9.206;2023-03-19T02:59:35;16.40;41.60
32394;DHT22;18853;45.426;9.206;2023-03-19T03:02:01;16.40;41.70
32394;DHT22;18853;45.426;9.206;2023-03-19T03:04:27;16.40;41.80
32394;DHT22;18853;45.426;9.206;2023-03-19T03:06:53;16.40;41.80
32394;DHT22;18853;45.426;9.206;2023-03-19T03:09:19;16.30;41.80
32394;DHT22;18853;45.426;9.206;2023-03-19T03:11:45;16.30;41.80
32394;DHT22;18853;45.426;9.206;2023-03-19T03:14:11;16.30;41.90
32394;DHT22;18853;45.426;9.206;2023-03-19T03:16:37;16.30;42.00
32394;DHT22;18853;45.426;9.206;2023-03-19T03:19:03;16.30;42.20
32394;DHT22;18853;45.426;9.206;2023-03-19T03:21:29;16.30;42.20
32394;DHT22;18853;45.426;9.206;2023-03-19T03:23:55;16.30;42.20
32394;DHT22;18853;45.426;9.206;2023-03-19T03:26:20;16.20;42.20
32394;DHT22;18853;45.426;9.206;2023-03-19T03:28:46;16.20;42.20
32394;DHT22;18853;45.426;9.206;2023-03-19T03:31:12;16.20;42.30
32394;DHT22;18853;45.426;9.206;2023-03-19T03:33:38;16.20;42.30
32394;DHT22;18853;45.426;9.206;2023-03-19T03:36:03;16.20;42.40
32394;DHT22;18853;45.426;9.206;2023-03-19T03:38:29;16.20;42.60
32394;DHT22;18853;45.426;9.206;2023-03-19T03:40:57;16.20;42.60
32394;DHT22;18853;45.426;9.206;2023-03-19T03:43:23;16.20;42.80
32394;DHT22;18853;45.426;9.206;2023-03-19T03:45:49;16.10;42.80
32394;DHT22;18853;45.426;9.206;2023-03-19T03:48:15;16.10;43.00
32394;DHT22;18853;45.426;9.206;2023-03-19T03:50:41;16.10;43.00
32394;DHT22;18853;45.426;9.206;2023-03-19T03:53:07;16.10;43.10
32394;DHT22;18853;45.426;9.206;2023-03-19T03:55:34;16.10;43.30
32394;DHT22;18853;45.426;9.206;2023-03-19T03:58:00;16.10;43.30
32394;DHT22;18853;45.426;9.206;2023-03-19T04:00:26;16.10;43.30
32394;DHT22;18853;45.426;9.206;2023-03-19T04:02:52;16.10;43.40
32394;DHT22;18853;45.426;9.206;2023-03-19T04:05:20;16.10;43.50
32394;DHT22;18853;45.426;9.206;2023-03-19T04:07:46;16.00;43.60
32394;DHT22;18853;45.426;9.206;2023-03-19T04:10:12;16.00;43.70
32394;DHT22;18853;45.426;9.206;2023-03-19T04:12:38;16.00;43.80
32394;DHT22;18853;45.426;9.206;2023-03-19T04:15:06;16.00;43.80
32394;DHT22;18853;45.426;9.206;2023-03-19T04:17:33;16.00;43.90
32394;DHT22;18853;45.426;9.206;2023-03-19T04:20:00;15.90;44.10
32394;DHT22;18853;45.426;9.206;2023-03-19T04:22:26;16.00;44.20
32394;DHT22;18853;45.426;9.206;2023-03-19T04:24:52;15.90;44.30
32394;DHT22;18853;45.426;9.206;2023-03-19T04:27:18;15.90;44.30
32394;DHT22;18853;45.426;9.206;2023-03-19T04:29:43;15.90;44.40
32394;DHT22;18853;45.426;9.206;2023-03-19T04:32:09;15.80;44.50
32394;DHT22;18853;45.426;9.206;2023-03-19T04:34:34;15.80;44.60
32394;DHT22;18853;45.426;9.206;2023-03-19T04:37:00;15.80;44.80
32394;DHT22;18853;45.426;9.206;2023-03-19T04:39:26;15.80;45.00
32394;DHT22;18853;45.426;9.206;2023-03-19T04:41:52;15.80;45.20
32394;DHT22;18853;45.426;9.206;2023-03-19T04:44:18;15.80;45.30
32394;DHT22;18853;45.426;9.206;2023-03-19T04:46:44;15.70;45.30
32394;DHT22;18853;45.426;9.206;2023-03-19T04:49:11;15.70;45.40
32394;DHT22;18853;45.426;9.206;2023-03-19T04:51:37;15.70;45.50
32394;DHT22;18853;45.426;9.206;2023-03-19T04:54:03;15.70;45.70
32394;DHT22;18853;45.426;9.206;2023-03-19T04:56:30;15.60;45.70
32394;DHT22;18853;45.426;9.206;2023-03-19T04:58:56;15.60;45.90
32394;DHT22;18853;45.426;9.206;2023-03-19T05:01:22;15.60;45.90
32394;DHT22;18853;45.426;9.206;2023-03-19T05:03:47;15.60;46.10
32394;DHT22;18853;45.426;9.206;2023-03-19T05:06:13;15.50;46.20
32394;DHT22;18853;45.426;9.206;2023-03-19T05:08:39;15.50;46.30
32394;DHT22;18853;45.426;9.206;2023-03-19T05:11:05;15.50;46.30
32394;DHT22;18853;45.426;9.206;2023-03-19T05:13:31;15.50;46.40
32394;DHT22;18853;45.426;9.206;2023-03-19T05:15:56;15.50;46.40
32394;DHT22;18853;45.426;9.206;2023-03-19T05:18:22;15.40;46.50
32394;DHT22;18853;45.426;9.206;2023-03-19T05:20:48;15.40;46.50
32394;DHT22;18853;45.426;9.206;2023-03-19T05:23:14;15.40;46.70
32394;DHT22;18853;45.426;9.206;2023-03-19T05:25:40;15.40;46.70
32394;DHT22;18853;45.426;9.206;2023-03-19T05:28:06;15.40;46.90
32394;DHT22;18853;45.426;9.206;2023-03-19T05:30:33;15.40;47.00
32394;DHT22;18853;45.426;9.206;2023-03-19T05:33:00;15.50;47.10
32394;DHT22;18853;45.426;9.206;2023-03-19T05:35:27;15.40;47.10
32394;DHT22;18853;45.426;9.206;2023-03-19T05:37:54;15.40;47.20
32394;DHT22;18853;45.426;9.206;2023-03-19T05:40:20;15.40;47.30
32394;DHT22;18853;45.426;9.206;2023-03-19T05:42:46;15.40;47.30
32394;DHT22;18853;45.426;9.206;2023-03-19T05:45:12;15.40;47.50
32394;DHT22;18853;45.426;9.206;2023-03-19T05:47:38;15.30;47.40
32394;DHT22;18853;45.426;9.206;2023-03-19T05:50:05;15.30;47.60
32394;DHT22;18853;45.426;9.206;2023-03-19T05:52:30;15.30;47.70
32394;DHT22;18853;45.426;9.206;2023-03-19T05:54:56;15.30;47.80
32394;DHT22;18853;45.426;9.206;2023-03-19T05:57:22;15.30;47.90
32394;DHT22;18853;45.426;9.206;2023-03-19T05:59:48;15.30;47.90
32394;DHT22;18853;45.426;9.206;2023-03-19T06:02:13;15.20;48.00
32394;DHT22;18853;45.426;9.206;2023-03-19T06:04:39;15.20;48.00
32394;DHT22;18853;45.426;9.206;2023-03-19T06:07:05;15.20;48.10
32394;DHT22;18853;45.426;9.206;2023-03-19T06:09:31;15.20;48.20
32394;DHT22;18853;45.426;9.206;2023-03-19T06:11:57;15.20;48.20
32394;DHT22;18853;45.426;9.206;2023-03-19T06:14:23;15.30;48.40
32394;DHT22;18853;45.426;9.206;2023-03-19T06:16:48;15.30;48.50
32394;DHT22;18853;45.426;9.206;2023-03-19T06:19:14;15.30;48.50
32394;DHT22;18853;45.426;9.206;2023-03-19T06:21:40;15.30;48.50
32394;DHT22;18853;45.426;9.206;2023-03-19T06:24:06;15.30;48.50
32394;DHT22;18853;45.426;9.206;2023-03-19T06:26:31;15.30;48.60
32394;DHT22;18853;45.426;9.206;2023-03-19T06:28:57;15.30;48.70
32394;DHT22;18853;45.426;9.206;2023-03-19T06:31:23;15.30;48.80
32394;DHT22;18853;45.426;9.206;2023-03-19T06:33:48;15.30;48.90
32394;DHT22;18853;45.426;9.206;2023-03-19T06:36:15;15.30;48.90
32394;DHT22;18853;45.426;9.206;2023-03-19T06:38:42;15.40;49.10
32394;DHT22;18853;45.426;9.206;2023-03-19T06:41:07;15.40;49.10
32394;DHT22;18853;45.426;9.206;2023-03-19T06:43:33;15.40;49.10
32394;DHT22;18853;45.426;9.206;2023-03-19T06:46:05;15.40;49.10
32394;DHT22;18853;45.426;9.206;2023-03-19T06:48:32;15.40;49.20
32394;DHT22;18853;45.426;9.206;2023-03-19T06:50:57;15.50;49.10
32394;DHT22;18853;45.426;9.206;2023-03-19T06:53:23;15.50;49.00
32394;DHT22;18853;45.426;9.206;2023-03-19T06:55:49;15.50;49.00
32394;DHT22;18853;45.426;9.206;2023-03-19T06:58:14;15.50;49.10
32394;DHT22;18853;45.426;9.206;2023-03-19T07:00:40;15.50;49.20
32394;DHT22;18853;45.426;9.206;2023-03-19T07:03:06;15.50;49.20
32394;DHT22;18853;45.426;9.206;2023-03-19T07:05:32;15.40;49.10
32394;DHT22;18853;45.426;9.206;2023-03-19T07:07:58;15.40;49.10
32394;DHT22;18853;45.426;9.206;2023-03-19T07:10:23;15.60;49.00
32394;DHT22;18853;45.426;9.206;2023-03-19T07:12:49;15.80;49.00
32394;DHT22;18853;45.426;9.206;2023-03-19T07:15:15;16.10;48.10
32394;DHT22;18853;45.426;9.206;2023-03-19T07:17:44;16.30;47.70
32394;DHT22;18853;45.426;9.206;2023-03-19T07:20:10;16.20;47.80
32394;DHT22;18853;45.426;9.206;2023-03-19T07:22:36;16.10;48.10
32394;DHT22;18853;45.426;9.206;2023-03-19T07:25:02;16.30;48.00
32394;DHT22;18853;45.426;9.206;2023-03-19T07:27:28;16.60;47.30
32394;DHT22;18853;45.426;9.206;2023-03-19T07:29:53;16.90;46.70
32394;DHT22;18853;45.426;9.206;2023-03-19T07:32:20;17.10;46.40
32394;DHT22;18853;45.426;9.206;2023-03-19T07:34:46;17.20;46.10
32394;DHT22;18853;45.426;9.206;2023-03-19T07:37:12;17.20;46.10
32394;DHT22;18853;45.426;9.206;2023-03-19T07:39:38;17.00;46.70
32394;DHT22;18853;45.426;9.206;2023-03-19T07:42:04;16.80;47.00
32394;DHT22;18853;45.426;9.206;2023-03-19T07:44:30;16.90;47.60
32394;DHT22;18853;45.426;9.206;2023-03-19T07:46:55;17.20;47.40
32394;DHT22;18853;45.426;9.206;2023-03-19T07:49:22;17.40;46.70
32394;DHT22;18853;45.426;9.206;2023-03-19T07:51:47;17.30;46.60
32394;DHT22;18853;45.426;9.206;2023-03-19T07:54:13;17.10;47.00
32394;DHT22;18853;45.426;9.206;2023-03-19T07:56:39;17.00;47.40
32394;DHT22;18853;45.426;9.206;2023-03-19T07:59:04;16.90;47.80
32394;DHT22;18853;45.426;9.206;2023-03-19T08:01:30;16.80;48.00
32394;DHT22;18853;45.426;9.206;2023-03-19T08:03:56;16.70;48.00
32394;DHT22;18853;45.426;9.206;2023-03-19T08:06:22;16.60;48.20
32394;DHT22;18853;45.426;9.206;2023-03-19T08:08:48;16.60;48.40
32394;DHT22;18853;45.426;9.206;2023-03-19T08:11:14;16.50;48.60
32394;DHT22;18853;45.426;9.206;2023-03-19T08:13:40;16.40;48.80
32394;DHT22;18853;45.426;9.206;2023-03-19T08:16:05;16.40;49.20
32394;DHT22;18853;45.426;9.206;2023-03-19T08:18:31;16.40;49.10
32394;DHT22;18853;45.426;9.206;2023-03-19T08:20:56;16.30;49.10
32394;DHT22;18853;45.426;9.206;2023-03-19T08:23:22;16.40;49.10
32394;DHT22;18853;45.426;9.206;2023-03-19T08:25:48;16.40;48.90
32394;DHT22;18853;45.426;9.206;2023-03-19T08:28:16;16.50;48.60
32394;DHT22;18853;45.426;9.206;2023-03-19T08:30:42;16.60;48.60
32394;DHT22;18853;45.426;9.206;2023-03-19T08:33:07;16.60;48.40
32394;DHT22;18853;45.426;9.206;2023-03-19T08:35:33;16.70;48.90
32394;DHT22;18853;45.426;9.206;2023-03-19T08:37:59;16.80;48.60
32394;DHT22;18853;45.426;9.206;2023-03-19T08:40:26;16.90;48.30
32394;DHT22;18853;45.426;9.206;2023-03-19T08:42:52;16.90;48.20
32394;DHT22;18853;45.426;9.206;2023-03-19T08:45:18;16.90;47.80
32394;DHT22;18853;45.426;9.206;2023-03-19T08:47:44;17.00;47.50
32394;DHT22;18853;45.426;9.206;2023-03-19T08:50:10;17.00;47.50
32394;DHT22;18853;45.426;9.206;2023-03-19T08:52:36;17.00;47.30
32394;DHT22;18853;45.426;9.206;2023-03-19T08:55:02;16.90;47.00
32394;DHT22;18853;45.426;9.206;2023-03-19T08:57:29;17.00;46.90
32394;DHT22;18853;45.426;9.206;2023-03-19T08:59:55;17.10;47.00
32394;DHT22;18853;45.426;9.206;2023-03-19T09:02:21;17.10;46.80
32394;DHT22;18853;45.426;9.206;2023-03-19T09:04:47;17.10;46.30
32394;DHT22;18853;45.426;9.206;2023-03-19T09:07:12;17.20;46.20
32394;DHT22;18853;45.426;9.206;2023-03-19T09:09:41;17.20;45.60
32394;DHT22;18853;45.426;9.206;2023-03-19T09:12:08;17.20;45.60
32394;DHT22;18853;45.426;9.206;2023-03-19T09:14:35;17.20;45.70
32394;DHT22;18853;45.426;9.206;2023-03-19T09:17:02;17.20;45.50
32394;DHT22;18853;45.426;9.206;2023-03-19T09:19:28;17.20;45.30
32394;DHT22;18853;45.426;9.206;2023-03-19T09:21:53;17.20;45.30
32394;DHT22;18853;45.426;9.206;2023-03-19T09:24:20;17.20;45.40
32394;DHT22;18853;45.426;9.206;2023-03-19T09:26:46;17.30;45.30
32394;DHT22;18853;45.426;9.206;2023-03-19T09:29:12;17.30;45.00
32394;DHT22;18853;45.426;9.206;2023-03-19T09:31:38;17.20;44.70
32394;DHT22;18853;45.426;9.206;2023-03-19T09:34:04;17.30;44.80
32394;DHT22;18853;45.426;9.206;2023-03-19T09:36:31;17.30;45.50
32394;DHT22;18853;45.426;9.206;2023-03-19T09:38:57;17.70;51.00
32394;DHT22;18853;45.426;9.206;2023-03-19T09:51:53;19.00;47.90
32394;DHT22;18853;45.426;9.206;2023-03-19T09:56:58;19.20;46.70
32394;DHT22;18853;45.426;9.206;2023-03-19T09:59:26;19.20;45.20
32394;DHT22;18853;45.426;9.206;2023-03-19T10:01:57;19.00;44.50
32394;DHT22;18853;45.426;9.206;2023-03-19T10:04:46;19.00;44.90
32394;DHT22;18853;45.426;9.206;2023-03-19T10:15:30;18.80;44.70
32394;DHT22;18853;45.426;9.206;2023-03-19T10:18:20;18.80;43.80
32394;DHT22;18853;45.426;9.206;2023-03-19T10:26:03;19.10;44.20
32394;DHT22;18853;45.426;9.206;2023-03-19T10:28:30;19.30;43.90
32394;DHT22;18853;45.426;9.206;2023-03-19T10:37:22;19.60;43.30
32394;DHT22;18853;45.426;9.206;2023-03-19T10:39:52;19.70;42.90
32394;DHT22;18853;45.426;9.206;2023-03-19T10:45:23;19.80;42.70
32394;DHT22;18853;45.426;9.206;2023-03-19T10:47:51;19.80;42.90
32394;DHT22;18853;45.426;9.206;2023-03-19T10:50:22;19.90;43.00
32394;DHT22;18853;45.426;9.206;2023-03-19T10:53:44;19.70;42.70
32394;DHT22;18853;45.426;9.206;2023-03-19T10:55:59;19.60;42.30
32394;DHT22;18853;45.426;9.206;2023-03-19T10:58:26;19.40;43.30
32394;DHT22;18853;45.426;9.206;2023-03-19T11:01:09;19.60;43.30
32394;DHT22;18853;45.426;9.206;2023-03-19T11:03:54;19.70;43.00
32394;DHT22;18853;45.426;9.206;2023-03-19T11:06:32;19.60;42.30
32394;DHT22;18853;45.426;9.206;2023-03-19T11:09:18;19.50;42.60
32394;DHT22;18853;45.426;9.206;2023-03-19T11:11:47;19.50;42.50
32394;DHT22;18853;45.426;9.206;2023-03-19T11:14:16;19.40;42.20
32394;DHT22;18853;45.426;9.206;2023-03-19T11:17:35;19.50;42.80
32394;DHT22;18853;45.426;9.206;2023-03-19T11:19:38;19.70;42.30
32394;DHT22;18853;45.426;9.206;2023-03-19T11:22:30;19.70;42.30
32394;DHT22;18853;45.426;9.206;2023-03-19T11:25:02;19.80;42.40
32394;DHT22;18853;45.426;9.206;2023-03-19T11:27:38;20.10;42.50
32394;DHT22;18853;45.426;9.206;2023-03-19T11:30:13;20.20;42.30
32394;DHT22;18853;45.426;9.206;2023-03-19T11:33:07;20.30;41.40
32394;DHT22;18853;45.426;9.206;2023-03-19T11:38:32;20.10;42.60
32394;DHT22;18853;45.426;9.206;2023-03-19T11:41:03;20.20;41.30
32394;DHT22;18853;45.426;9.206;2023-03-19T11:44:00;20.20;41.80
32394;DHT22;18853;45.426;9.206;2023-03-19T11:49:36;20.40;42.30
32394;DHT22;18853;45.426;9.206;2023-03-19T11:52:27;20.60;42.40
32394;DHT22;18853;45.426;9.206;2023-03-19T11:55:24;20.50;41.20
32394;DHT22;18853;45.426;9.206;2023-03-19T12:00:48;20.70;42.20
32394;DHT22;18853;45.426;9.206;2023-03-19T12:03:42;20.60;40.50
32394;DHT22;18853;45.426;9.206;2023-03-19T12:09:33;20.60;40.90
32394;DHT22;18853;45.426;9.206;2023-03-19T12:28:31;20.50;41.30
32394;DHT22;18853;45.426;9.206;2023-03-19T12:36:40;20.90;39.60
32394;DHT22;18853;45.426;9.206;2023-03-19T12:39:14;20.90;40.00
32394;DHT22;18853;45.426;9.206;2023-03-19T12:41:43;21.00;40.00
32394;DHT22;18853;45.426;9.206;2023-03-19T12:44:29;21.10;40.00
32394;DHT22;18853;45.426;9.206;2023-03-19T12:47:02;21.10;38.90
32394;DHT22;18853;45.426;9.206;2023-03-19T12:49:34;20.90;38.50
32394;DHT22;18853;45.426;9.206;2023-03-19T12:54:44;20.90;38.00
32394;DHT22;18853;45.426;9.206;2023-03-19T12:57:46;21.00;38.80
32394;DHT22;18853;45.426;9.206;2023-03-19T13:00:12;21.00;38.00
32394;DHT22;18853;45.426;9.206;2023-03-19T13:10:54;20.80;36.10
32394;DHT22;18853;45.426;9.206;2023-03-19T13:13:29;20.70;36.30
32394;DHT22;18853;45.426;9.206;2023-03-19T13:16:04;20.60;36.80
32394;DHT22;18853;45.426;9.206;2023-03-19T13:18:56;20.60;37.10
32394;DHT22;18853;45.426;9.206;2023-03-19T13:21:32;20.50;37.80
32394;DHT22;18853;45.426;9.206;2023-03-19T13:26:44;20.70;38.40
32394;DHT22;18853;45.426;9.206;2023-03-19T13:29:24;20.70;38.70
32394;DHT22;18853;45.426;9.206;2023-03-19T13:31:51;20.80;38.20
32394;DHT22;18853;45.426;9.206;2023-03-19T13:36:47;20.70;38.60
32394;DHT22;18853;45.426;9.206;2023-03-19T13:39:35;20.70;38.40
32394;DHT22;18853;45.426;9.206;2023-03-19T13:42:38;20.80;37.70
32394;DHT22;18853;45.426;9.206;2023-03-19T13:45:30;20.80;38.20
32394;DHT22;18853;45.426;9.206;2023-03-19T13:48:22;20.80;38.30
32394;DHT22;18853;45.426;9.206;2023-03-19T13:50:55;20.80;38.50
32394;DHT22;18853;45.426;9.206;2023-03-19T13:56:08;20.80;38.40
32394;DHT22;18853;45.426;9.206;2023-03-19T13:58:47;20.80;38.70
32394;DHT22;18853;45.426;9.206;2023-03-19T14:03:55;20.70;38.80
32394;DHT22;18853;45.426;9.206;2023-03-19T14:09:47;20.70;39.10
32394;DHT22;18853;45.426;9.206;2023-03-19T14:17:40;20.80;39.20
32394;DHT22;18853;45.426;9.206;2023-03-19T14:22:52;20.80;39.10
32394;DHT22;18853;45.426;9.206;2023-03-19T14:25:23;20.90;38.70
32394;DHT22;18853;45.426;9.206;2023-03-19T14:27:53;20.80;38.60
32394;DHT22;18853;45.426;9.206;2023-03-19T14:30:45;20.80;38.70
32394;DHT22;18853;45.426;9.206;2023-03-19T14:33:54;20.80;38.70
32394;DHT22;18853;45.426;9.206;2023-03-19T14:36:21;20.80;38.60
32394;DHT22;18853;45.426;9.206;2023-03-19T14:38:59;20.80;38.50
32394;DHT22;18853;45.426;9.206;2023-03-19T14:41:30;20.80;38.00
32394;DHT22;18853;45.426;9.206;2023-03-19T14:49:37;20.80;37.70
32394;DHT22;18853;45.426;9.206;2023-03-19T14:52:27;20.70;37.50
32394;DHT22;18853;45.426;9.206;2023-03-19T14:54:55;20.80;37.30
32394;DHT22;18853;45.426;9.206;2023-03-19T14:57:28;20.60;37.30
32394;DHT22;18853;45.426;9.206;2023-03-19T14:59:55;20.70;37.60
32394;DHT22;18853;45.426;9.206;2023-03-19T15:02:37;20.60;37.70
32394;DHT22;18853;45.426;9.206;2023-03-19T15:05:06;20.60;38.20
32394;DHT22;18853;45.426;9.206;2023-03-19T15:07:38;20.60;38.40
32394;DHT22;18853;45.426;9.206;2023-03-19T15:10:11;20.60;38.30
32394;DHT22;18853;45.426;9.206;2023-03-19T15:17:00;20.60;37.50
32394;DHT22;18853;45.426;9.206;2023-03-19T15:18:53;20.60;37.50
32394;DHT22;18853;45.426;9.206;2023-03-19T15:21:19;20.60;37.80
32394;DHT22;18853;45.426;9.206;2023-03-19T15:23:46;20.70;37.80
32394;DHT22;18853;45.426;9.206;2023-03-19T15:26:13;20.70;37.80
32394;DHT22;18853;45.426;9.206;2023-03-19T15:28:48;20.70;37.80
32394;DHT22;18853;45.426;9.206;2023-03-19T15:31:14;20.70;37.60
32394;DHT22;18853;45.426;9.206;2023-03-19T15:33:40;20.70;37.80
32394;DHT22;18853;45.426;9.206;2023-03-19T15:38:48;20.70;37.90
32394;DHT22;18853;45.426;9.206;2023-03-19T15:41:16;20.70;38.00
32394;DHT22;18853;45.426;9.206;2023-03-19T15:43:43;20.70;38.00
32394;DHT22;18853;45.426;9.206;2023-03-19T15:46:14;20.70;38.40
32394;DHT22;18853;45.426;9.206;2023-03-19T15:51:06;20.70;38.80
32394;DHT22;18853;45.426;9.206;2023-03-19T15:53:35;20.60;38.90
32394;DHT22;18853;45.426;9.206;2023-03-19T15:56:04;20.60;39.20
32394;DHT22;18853;45.426;9.206;2023-03-19T15:58:32;20.60;39.20
32394;DHT22;18853;45.426;9.206;2023-03-19T16:01:05;20.60;39.20
32394;DHT22;18853;45.426;9.206;2023-03-19T16:03:39;20.60;39.60
32394;DHT22;18853;45.426;9.206;2023-03-19T16:06:21;20.70;39.60
32394;DHT22;18853;45.426;9.206;2023-03-19T16:08:50;20.60;39.50
32394;DHT22;18853;45.426;9.206;2023-03-19T16:11:27;20.60;39.50
32394;DHT22;18853;45.426;9.206;2023-03-19T16:16:23;20.50;39.80
32394;DHT22;18853;45.426;9.206;2023-03-19T16:18:51;20.50;39.60
32394;DHT22;18853;45.426;9.206;2023-03-19T16:21:20;20.50;39.80
32394;DHT22;18853;45.426;9.206;2023-03-19T16:26:42;20.60;39.90
32394;DHT22;18853;45.426;9.206;2023-03-19T16:29:16;20.50;39.90
32394;DHT22;18853;45.426;9.206;2023-03-19T16:31:45;20.60;39.80
32394;DHT22;18853;45.426;9.206;2023-03-19T16:40:07;20.60;39.70
32394;DHT22;18853;45.426;9.206;2023-03-19T16:42:41;20.60;39.60
32394;DHT22;18853;45.426;9.206;2023-03-19T16:45:26;20.40;39.60
32394;DHT22;18853;45.426;9.206;2023-03-19T16:47:54;20.40;41.40
32394;DHT22;18853;45.426;9.206;2023-03-19T16:50:31;20.40;41.40
32394;DHT22;18853;45.426;9.206;2023-03-19T16:52:59;20.40;41.90
32394;DHT22;18853;45.426;9.206;2023-03-19T16:55:34;20.30;42.20
32394;DHT22;18853;45.426;9.206;2023-03-19T16:58:13;20.30;42.50
32394;DHT22;18853;45.426;9.206;2023-03-19T17:00:40;20.30;42.60
32394;DHT22;18853;45.426;9.206;2023-03-19T17:03:15;20.20;42.60
32394;DHT22;18853;45.426;9.206;2023-03-19T17:05:42;20.20;42.70
32394;DHT22;18853;45.426;9.206;2023-03-19T17:08:08;20.10;43.00
32394;DHT22;18853;45.426;9.206;2023-03-19T17:10:37;20.10;43.10
32394;DHT22;18853;45.426;9.206;2023-03-19T17:13:03;20.10;43.30
32394;DHT22;18853;45.426;9.206;2023-03-19T17:15:38;20.00;43.50
32394;DHT22;18853;45.426;9.206;2023-03-19T17:18:20;20.00;43.70
32394;DHT22;18853;45.426;9.206;2023-03-19T17:21:00;20.00;43.60
32394;DHT22;18853;45.426;9.206;2023-03-19T17:23:27;20.00;43.90
32394;DHT22;18853;45.426;9.206;2023-03-19T17:25:55;20.00;43.80
32394;DHT22;18853;45.426;9.206;2023-03-19T17:28:21;20.00;43.80
32394;DHT22;18853;45.426;9.206;2023-03-19T17:30:47;20.00;43.70
32394;DHT22;18853;45.426;9.206;2023-03-19T17:33:25;19.90;43.70
32394;DHT22;18853;45.426;9.206;2023-03-19T17:35:52;20.00;43.90
32394;DHT22;18853;45.426;9.206;2023-03-19T17:38:19;19.90;44.00
32394;DHT22;18853;45.426;9.206;2023-03-19T17:40:45;19.90;44.10
32394;DHT22;18853;45.426;9.206;2023-03-19T17:43:12;19.80;44.10
32394;DHT22;18853;45.426;9.206;2023-03-19T17:45:40;19.80;44.20
32394;DHT22;18853;45.426;9.206;2023-03-19T17:48:17;19.80;44.40
32394;DHT22;18853;45.426;9.206;2023-03-19T17:50:43;19.80;44.60
32394;DHT22;18853;45.426;9.206;2023-03-19T17:53:11;19.70;44.50
32394;DHT22;18853;45.426;9.206;2023-03-19T17:55:39;19.70;44.40
32394;DHT22;18853;45.426;9.206;2023-03-19T17:58:16;19.90;45.20